sensor_id;sensor_type;location;lat;lon;timestamp;P1;durP1;ratioP1;P2;durP2;ratioP2
14276;SDS011;7222;57.346;12.150;2023-07-20T00:00:26;8.13;;;3.67;;
14276;SDS011;7222;57.346;12.150;2023-07-20T00:02:56;7.00;;;3.23;;
14276;SDS011;7222;57.346;12.150;2023-07-20T00:05:37;4.90;;;3.20;;
14276;SDS011;7222;57.346;12.150;2023-07-20T00:08:05;5.63;;;3.67;;
14276;SDS011;7222;57.346;12.150;2023-07-20T00:10:32;5.57;;;3.30;;
14276;SDS011;7222;57.346;12.150;2023-07-20T00:13:00;5.80;;;3.23;;
14276;SDS011;7222;57.346;12.150;2023-07-20T00:15:27;9.93;;;3.07;;
14276;SDS011;7222;57.346;12.150;2023-07-20T00:17:55;7.50;;;3.43;;
14276;SDS011;7222;57.346;12.150;2023-07-20T00:20:23;7.63;;;3.60;;
14276;SDS011;7222;57.346;12.150;2023-07-20T00:22:50;7.37;;;3.47;;
14276;SDS011;7222;57.346;12.150;2023-07-20T00:25:17;8.17;;;3.70;;
14276;SDS011;7222;57.346;12.150;2023-07-20T00:27:44;6.50;;;3.30;;
14276;SDS011;7222;57.346;12.150;2023-07-20T00:30:13;5.93;;;3.33;;
14276;SDS011;7222;57.346;12.150;2023-07-20T00:32:41;5.77;;;2.83;;
14276;SDS011;7222;57.346;12.150;2023-07-20T00:35:08;8.83;;;2.83;;
14276;SDS011;7222;57.346;12.150;2023-07-20T00:37:36;7.63;;;3.70;;
14276;SDS011;7222;57.346;12.150;2023-07-20T00:40:03;7.00;;;3.30;;
14276;SDS011;7222;57.346;12.150;2023-07-20T00:42:32;5.53;;;2.40;;
14276;SDS011;7222;57.346;12.150;2023-07-20T00:45:00;6.73;;;2.97;;
14276;SDS011;7222;57.346;12.150;2023-07-20T00:47:28;6.53;;;3.27;;
14276;SDS011;7222;57.346;12.150;2023-07-20T00:49:55;6.23;;;3.07;;
14276;SDS011;7222;57.346;12.150;2023-07-20T00:52:23;6.57;;;3.20;;
14276;SDS011;7222;57.346;12.150;2023-07-20T00:54:51;7.70;;;3.30;;
14276;SDS011;7222;57.346;12.150;2023-07-20T00:57:21;9.57;;;3.27;;
14276;SDS011;7222;57.346;12.150;2023-07-20T00:59:50;7.17;;;2.90;;
14276;SDS011;7222;57.346;12.150;2023-07-20T01:02:17;6.77;;;3.07;;
14276;SDS011;7222;57.346;12.150;2023-07-20T01:04:46;7.70;;;3.37;;
14276;SDS011;7222;57.346;12.150;2023-07-20T01:07:14;8.60;;;3.67;;
14276;SDS011;7222;57.346;12.150;2023-07-20T01:09:51;7.20;;;3.27;;
14276;SDS011;7222;57.346;12.150;2023-07-20T01:12:25;6.30;;;3.00;;
14276;SDS011;7222;57.346;12.150;2023-07-20T01:14:54;7.50;;;3.63;;
14276;SDS011;7222;57.346;12.150;2023-07-20T01:17:21;7.83;;;3.53;;
14276;SDS011;7222;57.346;12.150;2023-07-20T01:19:50;7.60;;;3.20;;
14276;SDS011;7222;57.346;12.150;2023-07-20T01:22:21;8.77;;;3.03;;
14276;SDS011;7222;57.346;12.150;2023-07-20T01:25:11;5.67;;;3.27;;
14276;SDS011;7222;57.346;12.150;2023-07-20T01:27:59;7.10;;;3.50;;
14276;SDS011;7222;57.346;12.150;2023-07-20T01:30:46;11.00;;;3.27;;
14276;SDS011;7222;57.346;12.150;2023-07-20T01:33:23;6.73;;;3.37;;
14276;SDS011;7222;57.346;12.150;2023-07-20T01:35:52;7.70;;;3.50;;
14276;SDS011;7222;57.346;12.150;2023-07-20T01:38:21;7.17;;;3.10;;
14276;SDS011;7222;57.346;12.150;2023-07-20T01:40:49;7.23;;;3.13;;
14276;SDS011;7222;57.346;12.150;2023-07-20T01:43:17;5.83;;;3.67;;
14276;SDS011;7222;57.346;12.150;2023-07-20T01:45:45;6.47;;;3.43;;
14276;SDS011;7222;57.346;12.150;2023-07-20T01:48:12;7.87;;;3.00;;
14276;SDS011;7222;57.346;12.150;2023-07-20T01:50:39;7.73;;;2.90;;
14276;SDS011;7222;57.346;12.150;2023-07-20T01:53:06;8.27;;;3.37;;
14276;SDS011;7222;57.346;12.150;2023-07-20T01:55:33;7.93;;;3.80;;
14276;SDS011;7222;57.346;12.150;2023-07-20T01:58:00;7.03;;;3.43;;
14276;SDS011;7222;57.346;12.150;2023-07-20T02:00:28;10.83;;;3.90;;
14276;SDS011;7222;57.346;12.150;2023-07-20T02:02:55;7.10;;;3.20;;
14276;SDS011;7222;57.346;12.150;2023-07-20T02:05:22;7.70;;;3.40;;
14276;SDS011;7222;57.346;12.150;2023-07-20T02:07:51;7.50;;;3.47;;
14276;SDS011;7222;57.346;12.150;2023-07-20T02:10:18;8.47;;;3.90;;
14276;SDS011;7222;57.346;12.150;2023-07-20T02:12:44;7.83;;;3.63;;
14276;SDS011;7222;57.346;12.150;2023-07-20T02:15:12;6.60;;;3.30;;
14276;SDS011;7222;57.346;12.150;2023-07-20T02:17:41;7.33;;;3.20;;
14276;SDS011;7222;57.346;12.150;2023-07-20T02:20:09;5.53;;;3.43;;
14276;SDS011;7222;57.346;12.150;2023-07-20T02:22:37;9.27;;;3.33;;
14276;SDS011;7222;57.346;12.150;2023-07-20T02:25:06;7.20;;;3.10;;
14276;SDS011;7222;57.346;12.150;2023-07-20T02:27:34;6.97;;;3.17;;
14276;SDS011;7222;57.346;12.150;2023-07-20T02:30:01;7.73;;;3.33;;
14276;SDS011;7222;57.346;12.150;2023-07-20T02:32:29;8.03;;;2.90;;
14276;SDS011;7222;57.346;12.150;2023-07-20T02:34:58;7.47;;;3.03;;
14276;SDS011;7222;57.346;12.150;2023-07-20T02:37:25;10.77;;;4.37;;
14276;SDS011;7222;57.346;12.150;2023-07-20T02:39:52;9.13;;;4.07;;
14276;SDS011;7222;57.346;12.150;2023-07-20T02:42:20;7.77;;;3.73;;
14276;SDS011;7222;57.346;12.150;2023-07-20T02:44:47;7.63;;;4.27;;
14276;SDS011;7222;57.346;12.150;2023-07-20T02:47:15;9.83;;;3.70;;
14276;SDS011;7222;57.346;12.150;2023-07-20T02:49:44;5.90;;;3.10;;
14276;SDS011;7222;57.346;12.150;2023-07-20T02:52:11;6.23;;;3.50;;
14276;SDS011;7222;57.346;12.150;2023-07-20T02:54:38;5.57;;;3.00;;
14276;SDS011;7222;57.346;12.150;2023-07-20T02:57:05;7.83;;;3.43;;
14276;SDS011;7222;57.346;12.150;2023-07-20T02:59:34;4.50;;;2.57;;
14276;SDS011;7222;57.346;12.150;2023-07-20T03:02:01;6.87;;;2.63;;
14276;SDS011;7222;57.346;12.150;2023-07-20T03:04:28;7.57;;;2.80;;
14276;SDS011;7222;57.346;12.150;2023-07-20T03:06:55;5.70;;;3.07;;
14276;SDS011;7222;57.346;12.150;2023-07-20T03:09:22;4.67;;;2.63;;
14276;SDS011;7222;57.346;12.150;2023-07-20T03:11:49;7.13;;;3.10;;
14276;SDS011;7222;57.346;12.150;2023-07-20T03:14:17;7.13;;;3.00;;
14276;SDS011;7222;57.346;12.150;2023-07-20T03:16:45;4.20;;;2.50;;
14276;SDS011;7222;57.346;12.150;2023-07-20T03:19:12;6.83;;;3.47;;
14276;SDS011;7222;57.346;12.150;2023-07-20T03:21:39;7.50;;;2.77;;
14276;SDS011;7222;57.346;12.150;2023-07-20T03:24:07;6.93;;;2.93;;
14276;SDS011;7222;57.346;12.150;2023-07-20T03:26:34;6.33;;;2.63;;
14276;SDS011;7222;57.346;12.150;2023-07-20T03:29:01;5.80;;;2.67;;
14276;SDS011;7222;57.346;12.150;2023-07-20T03:31:29;5.73;;;2.10;;
14276;SDS011;7222;57.346;12.150;2023-07-20T03:33:57;5.90;;;2.40;;
14276;SDS011;7222;57.346;12.150;2023-07-20T03:36:24;7.90;;;2.93;;
14276;SDS011;7222;57.346;12.150;2023-07-20T03:38:51;5.13;;;2.70;;
14276;SDS011;7222;57.346;12.150;2023-07-20T03:41:19;6.97;;;2.37;;
14276;SDS011;7222;57.346;12.150;2023-07-20T03:43:46;6.20;;;2.90;;
14276;SDS011;7222;57.346;12.150;2023-07-20T03:46:14;4.90;;;2.57;;
14276;SDS011;7222;57.346;12.150;2023-07-20T03:48:41;7.03;;;2.17;;
14276;SDS011;7222;57.346;12.150;2023-07-20T03:51:09;3.20;;;1.80;;
14276;SDS011;7222;57.346;12.150;2023-07-20T03:53:36;4.03;;;2.23;;
14276;SDS011;7222;57.346;12.150;2023-07-20T03:56:04;6.00;;;3.07;;
14276;SDS011;7222;57.346;12.150;2023-07-20T03:58:31;7.90;;;2.37;;
14276;SDS011;7222;57.346;12.150;2023-07-20T04:00:58;4.33;;;2.50;;
14276;SDS011;7222;57.346;12.150;2023-07-20T04:03:25;5.93;;;2.40;;
14276;SDS011;7222;57.346;12.150;2023-07-20T04:05:53;3.83;;;2.20;;
14276;SDS011;7222;57.346;12.150;2023-07-20T04:08:22;8.87;;;2.20;;
14276;SDS011;7222;57.346;12.150;2023-07-20T04:10:51;4.67;;;2.43;;
14276;SDS011;7222;57.346;12.150;2023-07-20T04:13:18;5.57;;;2.40;;
14276;SDS011;7222;57.346;12.150;2023-07-20T04:15:45;4.43;;;2.20;;
14276;SDS011;7222;57.346;12.150;2023-07-20T04:18:12;6.20;;;2.20;;
14276;SDS011;7222;57.346;12.150;2023-07-20T04:20:40;7.50;;;2.50;;
14276;SDS011;7222;57.346;12.150;2023-07-20T04:23:07;5.17;;;2.43;;
14276;SDS011;7222;57.346;12.150;2023-07-20T04:25:35;4.93;;;2.40;;
14276;SDS011;7222;57.346;12.150;2023-07-20T04:28:05;5.93;;;2.13;;
14276;SDS011;7222;57.346;12.150;2023-07-20T04:30:34;6.80;;;2.27;;
14276;SDS011;7222;57.346;12.150;2023-07-20T04:33:02;5.10;;;2.37;;
14276;SDS011;7222;57.346;12.150;2023-07-20T04:35:45;4.33;;;2.40;;
14276;SDS011;7222;57.346;12.150;2023-07-20T04:38:14;7.33;;;2.60;;
14276;SDS011;7222;57.346;12.150;2023-07-20T04:40:44;4.80;;;2.43;;
14276;SDS011;7222;57.346;12.150;2023-07-20T04:43:11;4.13;;;2.00;;
14276;SDS011;7222;57.346;12.150;2023-07-20T04:45:38;4.33;;;2.30;;
14276;SDS011;7222;57.346;12.150;2023-07-20T04:48:06;3.93;;;2.20;;
14276;SDS011;7222;57.346;12.150;2023-07-20T04:50:36;9.80;;;2.73;;
14276;SDS011;7222;57.346;12.150;2023-07-20T04:53:04;5.70;;;2.30;;
14276;SDS011;7222;57.346;12.150;2023-07-20T04:55:31;6.63;;;2.40;;
14276;SDS011;7222;57.346;12.150;2023-07-20T04:58:00;4.33;;;2.00;;
14276;SDS011;7222;57.346;12.150;2023-07-20T05:00:27;4.07;;;2.10;;
14276;SDS011;7222;57.346;12.150;2023-07-20T05:02:54;6.93;;;2.20;;
14276;SDS011;7222;57.346;12.150;2023-07-20T05:05:22;3.90;;;1.97;;
14276;SDS011;7222;57.346;12.150;2023-07-20T05:07:49;4.53;;;2.13;;
14276;SDS011;7222;57.346;12.150;2023-07-20T05:10:16;5.80;;;2.20;;
14276;SDS011;7222;57.346;12.150;2023-07-20T05:12:43;5.57;;;2.00;;
14276;SDS011;7222;57.346;12.150;2023-07-20T05:15:12;5.13;;;1.73;;
14276;SDS011;7222;57.346;12.150;2023-07-20T05:17:39;5.17;;;1.60;;
14276;SDS011;7222;57.346;12.150;2023-07-20T05:20:06;5.27;;;2.00;;
14276;SDS011;7222;57.346;12.150;2023-07-20T05:22:37;4.23;;;2.10;;
14276;SDS011;7222;57.346;12.150;2023-07-20T05:25:06;2.87;;;1.80;;
14276;SDS011;7222;57.346;12.150;2023-07-20T05:27:34;3.67;;;1.87;;
14276;SDS011;7222;57.346;12.150;2023-07-20T05:30:03;3.80;;;1.60;;
14276;SDS011;7222;57.346;12.150;2023-07-20T05:32:33;6.03;;;2.00;;
14276;SDS011;7222;57.346;12.150;2023-07-20T05:35:01;3.83;;;1.70;;
14276;SDS011;7222;57.346;12.150;2023-07-20T05:37:28;4.80;;;1.67;;
14276;SDS011;7222;57.346;12.150;2023-07-20T05:39:55;2.33;;;1.20;;
14276;SDS011;7222;57.346;12.150;2023-07-20T05:42:22;2.87;;;1.43;;
14276;SDS011;7222;57.346;12.150;2023-07-20T05:44:49;4.40;;;2.00;;
14276;SDS011;7222;57.346;12.150;2023-07-20T05:47:18;6.13;;;1.80;;
14276;SDS011;7222;57.346;12.150;2023-07-20T05:49:47;5.77;;;1.90;;
14276;SDS011;7222;57.346;12.150;2023-07-20T05:52:14;8.30;;;2.00;;
14276;SDS011;7222;57.346;12.150;2023-07-20T05:54:41;2.47;;;1.43;;
14276;SDS011;7222;57.346;12.150;2023-07-20T05:57:08;5.03;;;1.87;;
14276;SDS011;7222;57.346;12.150;2023-07-20T05:59:35;5.43;;;1.70;;
14276;SDS011;7222;57.346;12.150;2023-07-20T06:02:03;3.93;;;1.50;;
14276;SDS011;7222;57.346;12.150;2023-07-20T06:04:30;4.60;;;1.63;;
14276;SDS011;7222;57.346;12.150;2023-07-20T06:06:59;4.60;;;1.40;;
14276;SDS011;7222;57.346;12.150;2023-07-20T06:09:27;6.03;;;2.00;;
14276;SDS011;7222;57.346;12.150;2023-07-20T06:11:54;5.10;;;1.80;;
14276;SDS011;7222;57.346;12.150;2023-07-20T06:14:22;4.83;;;1.57;;
14276;SDS011;7222;57.346;12.150;2023-07-20T06:16:49;5.27;;;1.70;;
14276;SDS011;7222;57.346;12.150;2023-07-20T06:19:16;3.07;;;2.00;;
14276;SDS011;7222;57.346;12.150;2023-07-20T06:21:43;8.13;;;2.60;;
14276;SDS011;7222;57.346;12.150;2023-07-20T06:24:12;5.63;;;2.17;;
14276;SDS011;7222;57.346;12.150;2023-07-20T06:26:40;3.70;;;1.70;;
14276;SDS011;7222;57.346;12.150;2023-07-20T06:29:07;4.37;;;1.93;;
14276;SDS011;7222;57.346;12.150;2023-07-20T06:31:35;6.23;;;1.70;;
14276;SDS011;7222;57.346;12.150;2023-07-20T06:34:02;4.70;;;1.80;;
14276;SDS011;7222;57.346;12.150;2023-07-20T06:36:30;5.87;;;1.80;;
14276;SDS011;7222;57.346;12.150;2023-07-20T06:38:57;2.43;;;1.50;;
14276;SDS011;7222;57.346;12.150;2023-07-20T06:41:26;3.70;;;1.63;;
14276;SDS011;7222;57.346;12.150;2023-07-20T06:43:53;5.33;;;1.80;;
14276;SDS011;7222;57.346;12.150;2023-07-20T06:46:23;2.10;;;1.50;;
14276;SDS011;7222;57.346;12.150;2023-07-20T06:48:51;3.17;;;1.83;;
14276;SDS011;7222;57.346;12.150;2023-07-20T06:51:18;6.00;;;1.77;;
14276;SDS011;7222;57.346;12.150;2023-07-20T06:53:45;2.87;;;1.30;;
14276;SDS011;7222;57.346;12.150;2023-07-20T06:56:12;3.63;;;1.50;;
14276;SDS011;7222;57.346;12.150;2023-07-20T06:58:41;6.70;;;2.10;;
14276;SDS011;7222;57.346;12.150;2023-07-20T07:01:08;5.63;;;1.60;;
14276;SDS011;7222;57.346;12.150;2023-07-20T07:03:36;7.43;;;1.80;;
14276;SDS011;7222;57.346;12.150;2023-07-20T07:06:03;3.70;;;1.60;;
14276;SDS011;7222;57.346;12.150;2023-07-20T07:08:30;3.30;;;1.60;;
14276;SDS011;7222;57.346;12.150;2023-07-20T07:10:57;4.57;;;1.53;;
14276;SDS011;7222;57.346;12.150;2023-07-20T07:13:24;3.90;;;1.60;;
14276;SDS011;7222;57.346;12.150;2023-07-20T07:15:53;2.93;;;1.40;;
14276;SDS011;7222;57.346;12.150;2023-07-20T07:18:20;4.07;;;1.90;;
14276;SDS011;7222;57.346;12.150;2023-07-20T07:20:50;4.27;;;1.67;;
14276;SDS011;7222;57.346;12.150;2023-07-20T07:23:18;3.57;;;1.50;;
14276;SDS011;7222;57.346;12.150;2023-07-20T07:25:45;5.97;;;1.60;;
14276;SDS011;7222;57.346;12.150;2023-07-20T07:28:13;2.20;;;1.40;;
14276;SDS011;7222;57.346;12.150;2023-07-20T07:30:40;6.03;;;2.30;;
14276;SDS011;7222;57.346;12.150;2023-07-20T07:33:09;5.20;;;2.00;;
14276;SDS011;7222;57.346;12.150;2023-07-20T07:35:36;4.90;;;1.37;;
14276;SDS011;7222;57.346;12.150;2023-07-20T07:38:04;4.40;;;1.80;;
14276;SDS011;7222;57.346;12.150;2023-07-20T07:40:31;3.20;;;1.37;;
14276;SDS011;7222;57.346;12.150;2023-07-20T07:42:58;4.90;;;1.87;;
14276;SDS011;7222;57.346;12.150;2023-07-20T07:45:25;6.17;;;1.43;;
14276;SDS011;7222;57.346;12.150;2023-07-20T07:47:52;3.10;;;1.23;;
14276;SDS011;7222;57.346;12.150;2023-07-20T07:50:21;5.50;;;1.60;;
14276;SDS011;7222;57.346;12.150;2023-07-20T07:52:48;3.07;;;1.50;;
14276;SDS011;7222;57.346;12.150;2023-07-20T07:55:15;3.53;;;1.53;;
14276;SDS011;7222;57.346;12.150;2023-07-20T07:57:43;4.77;;;1.60;;
14276;SDS011;7222;57.346;12.150;2023-07-20T08:00:10;3.43;;;1.77;;
14276;SDS011;7222;57.346;12.150;2023-07-20T08:02:40;3.17;;;1.70;;
14276;SDS011;7222;57.346;12.150;2023-07-20T08:05:08;5.10;;;1.67;;
14276;SDS011;7222;57.346;12.150;2023-07-20T08:07:36;5.73;;;2.20;;
14276;SDS011;7222;57.346;12.150;2023-07-20T08:10:03;4.00;;;1.70;;
14276;SDS011;7222;57.346;12.150;2023-07-20T08:12:31;4.67;;;1.90;;
14276;SDS011;7222;57.346;12.150;2023-07-20T08:14:58;4.13;;;1.90;;
14276;SDS011;7222;57.346;12.150;2023-07-20T08:17:25;4.30;;;1.40;;
14276;SDS011;7222;57.346;12.150;2023-07-20T08:19:52;9.73;;;2.03;;
14276;SDS011;7222;57.346;12.150;2023-07-20T08:22:19;5.80;;;1.97;;
14276;SDS011;7222;57.346;12.150;2023-07-20T08:24:48;5.47;;;1.60;;
14276;SDS011;7222;57.346;12.150;2023-07-20T08:27:15;2.70;;;1.50;;
14276;SDS011;7222;57.346;12.150;2023-07-20T08:32:20;4.73;;;1.73;;
14276;SDS011;7222;57.346;12.150;2023-07-20T08:34:47;2.47;;;1.80;;
14276;SDS011;7222;57.346;12.150;2023-07-20T08:37:14;3.13;;;1.70;;
14276;SDS011;7222;57.346;12.150;2023-07-20T08:39:41;4.80;;;1.70;;
14276;SDS011;7222;57.346;12.150;2023-07-20T08:42:10;4.63;;;1.50;;
14276;SDS011;7222;57.346;12.150;2023-07-20T08:44:41;4.33;;;1.60;;
14276;SDS011;7222;57.346;12.150;2023-07-20T08:47:09;4.47;;;1.90;;
14276;SDS011;7222;57.346;12.150;2023-07-20T08:49:38;3.60;;;1.50;;
14276;SDS011;7222;57.346;12.150;2023-07-20T08:52:06;3.53;;;1.53;;
14276;SDS011;7222;57.346;12.150;2023-07-20T08:54:34;4.53;;;1.90;;
14276;SDS011;7222;57.346;12.150;2023-07-20T08:57:02;2.67;;;1.53;;
14276;SDS011;7222;57.346;12.150;2023-07-20T08:59:31;3.03;;;1.70;;
14276;SDS011;7222;57.346;12.150;2023-07-20T09:02:00;4.43;;;1.80;;
14276;SDS011;7222;57.346;12.150;2023-07-20T09:04:30;3.43;;;1.50;;
14276;SDS011;7222;57.346;12.150;2023-07-20T09:06:58;3.80;;;1.70;;
14276;SDS011;7222;57.346;12.150;2023-07-20T09:09:25;3.97;;;1.80;;
14276;SDS011;7222;57.346;12.150;2023-07-20T09:11:52;6.57;;;2.20;;
14276;SDS011;7222;57.346;12.150;2023-07-20T09:14:19;7.17;;;1.80;;
14276;SDS011;7222;57.346;12.150;2023-07-20T09:16:52;6.90;;;2.20;;
14276;SDS011;7222;57.346;12.150;2023-07-20T09:19:20;6.13;;;2.17;;
14276;SDS011;7222;57.346;12.150;2023-07-20T09:21:47;5.17;;;1.93;;
14276;SDS011;7222;57.346;12.150;2023-07-20T09:24:16;4.47;;;2.20;;
14276;SDS011;7222;57.346;12.150;2023-07-20T09:26:45;5.37;;;2.20;;
14276;SDS011;7222;57.346;12.150;2023-07-20T09:29:16;5.77;;;1.60;;
14276;SDS011;7222;57.346;12.150;2023-07-20T09:31:55;5.00;;;1.90;;
14276;SDS011;7222;57.346;12.150;2023-07-20T09:34:26;5.23;;;1.87;;
14276;SDS011;7222;57.346;12.150;2023-07-20T09:36:54;3.70;;;1.50;;
14276;SDS011;7222;57.346;12.150;2023-07-20T09:39:22;5.13;;;1.70;;
14276;SDS011;7222;57.346;12.150;2023-07-20T09:41:49;4.33;;;1.63;;
14276;SDS011;7222;57.346;12.150;2023-07-20T09:44:17;3.93;;;1.60;;
14276;SDS011;7222;57.346;12.150;2023-07-20T09:46:46;6.50;;;2.33;;
14276;SDS011;7222;57.346;12.150;2023-07-20T09:49:15;5.53;;;1.90;;
14276;SDS011;7222;57.346;12.150;2023-07-20T09:51:44;6.87;;;2.13;;
14276;SDS011;7222;57.346;12.150;2023-07-20T09:54:13;4.23;;;1.90;;
14276;SDS011;7222;57.346;12.150;2023-07-20T09:56:40;7.77;;;2.60;;
14276;SDS011;7222;57.346;12.150;2023-07-20T09:59:08;7.13;;;2.23;;
14276;SDS011;7222;57.346;12.150;2023-07-20T10:01:35;4.87;;;1.90;;
14276;SDS011;7222;57.346;12.150;2023-07-20T10:04:07;2.20;;;1.40;;
14276;SDS011;7222;57.346;12.150;2023-07-20T10:06:39;6.23;;;1.73;;
14276;SDS011;7222;57.346;12.150;2023-07-20T10:09:12;2.77;;;1.73;;
14276;SDS011;7222;57.346;12.150;2023-07-20T10:11:43;5.73;;;2.20;;
14276;SDS011;7222;57.346;12.150;2023-07-20T10:14:16;4.63;;;1.40;;
14276;SDS011;7222;57.346;12.150;2023-07-20T10:16:46;4.50;;;1.67;;
14276;SDS011;7222;57.346;12.150;2023-07-20T10:19:20;4.30;;;1.70;;
14276;SDS011;7222;57.346;12.150;2023-07-20T10:21:54;3.87;;;1.50;;
14276;SDS011;7222;57.346;12.150;2023-07-20T10:24:25;4.40;;;1.67;;
14276;SDS011;7222;57.346;12.150;2023-07-20T10:26:54;4.93;;;2.10;;
14276;SDS011;7222;57.346;12.150;2023-07-20T10:29:22;4.60;;;1.60;;
14276;SDS011;7222;57.346;12.150;2023-07-20T10:31:52;4.83;;;1.67;;
14276;SDS011;7222;57.346;12.150;2023-07-20T10:34:20;5.07;;;1.43;;
14276;SDS011;7222;57.346;12.150;2023-07-20T10:36:48;6.37;;;1.60;;
14276;SDS011;7222;57.346;12.150;2023-07-20T10:39:24;5.23;;;1.53;;
14276;SDS011;7222;57.346;12.150;2023-07-20T10:41:59;3.60;;;1.63;;
14276;SDS011;7222;57.346;12.150;2023-07-20T10:44:28;4.23;;;1.87;;
14276;SDS011;7222;57.346;12.150;2023-07-20T10:47:00;4.83;;;1.70;;
14276;SDS011;7222;57.346;12.150;2023-07-20T10:49:28;3.30;;;1.20;;
14276;SDS011;7222;57.346;12.150;2023-07-20T10:51:56;4.57;;;1.40;;
14276;SDS011;7222;57.346;12.150;2023-07-20T10:54:35;3.40;;;1.60;;
14276;SDS011;7222;57.346;12.150;2023-07-20T10:57:21;3.20;;;1.10;;
14276;SDS011;7222;57.346;12.150;2023-07-20T10:59:49;2.70;;;1.50;;
14276;SDS011;7222;57.346;12.150;2023-07-20T11:02:17;5.30;;;1.50;;
14276;SDS011;7222;57.346;12.150;2023-07-20T11:04:45;3.63;;;1.30;;
14276;SDS011;7222;57.346;12.150;2023-07-20T11:07:14;4.57;;;1.80;;
14276;SDS011;7222;57.346;12.150;2023-07-20T11:09:44;4.10;;;1.43;;
14276;SDS011;7222;57.346;12.150;2023-07-20T11:12:11;3.87;;;1.20;;
14276;SDS011;7222;57.346;12.150;2023-07-20T11:14:40;1.97;;;1.10;;
14276;SDS011;7222;57.346;12.150;2023-07-20T11:17:11;1.80;;;1.53;;
14276;SDS011;7222;57.346;12.150;2023-07-20T11:19:39;3.00;;;1.27;;
14276;SDS011;7222;57.346;12.150;2023-07-20T11:22:06;2.30;;;1.20;;
14276;SDS011;7222;57.346;12.150;2023-07-20T11:24:34;5.57;;;1.40;;
14276;SDS011;7222;57.346;12.150;2023-07-20T11:27:06;3.07;;;1.30;;
14276;SDS011;7222;57.346;12.150;2023-07-20T11:29:34;2.93;;;1.33;;
14276;SDS011;7222;57.346;12.150;2023-07-20T11:32:01;2.43;;;1.30;;
14276;SDS011;7222;57.346;12.150;2023-07-20T11:34:30;5.33;;;1.53;;
14276;SDS011;7222;57.346;12.150;2023-07-20T11:36:57;3.97;;;1.23;;
14276;SDS011;7222;57.346;12.150;2023-07-20T11:39:25;3.20;;;1.20;;
14276;SDS011;7222;57.346;12.150;2023-07-20T11:41:52;3.10;;;1.03;;
14276;SDS011;7222;57.346;12.150;2023-07-20T11:44:23;4.27;;;1.27;;
14276;SDS011;7222;57.346;12.150;2023-07-20T11:46:59;1.67;;;1.00;;
14276;SDS011;7222;57.346;12.150;2023-07-20T11:49:28;3.83;;;1.33;;
14276;SDS011;7222;57.346;12.150;2023-07-20T11:51:56;3.90;;;1.20;;
14276;SDS011;7222;57.346;12.150;2023-07-20T11:54:23;2.90;;;1.50;;
14276;SDS011;7222;57.346;12.150;2023-07-20T11:56:53;3.77;;;1.47;;
14276;SDS011;7222;57.346;12.150;2023-07-20T11:59:20;4.10;;;1.60;;
14276;SDS011;7222;57.346;12.150;2023-07-20T12:01:49;3.63;;;1.47;;
14276;SDS011;7222;57.346;12.150;2023-07-20T12:04:16;4.93;;;1.20;;
14276;SDS011;7222;57.346;12.150;2023-07-20T12:06:43;2.83;;;1.60;;
14276;SDS011;7222;57.346;12.150;2023-07-20T12:09:13;4.27;;;1.60;;
14276;SDS011;7222;57.346;12.150;2023-07-20T12:11:42;2.27;;;1.37;;
14276;SDS011;7222;57.346;12.150;2023-07-20T12:14:10;4.00;;;1.20;;
14276;SDS011;7222;57.346;12.150;2023-07-20T12:16:39;3.97;;;1.90;;
14276;SDS011;7222;57.346;12.150;2023-07-20T12:19:06;4.10;;;1.40;;
14276;SDS011;7222;57.346;12.150;2023-07-20T12:21:34;2.33;;;1.13;;
14276;SDS011;7222;57.346;12.150;2023-07-20T12:24:02;5.90;;;1.50;;
14276;SDS011;7222;57.346;12.150;2023-07-20T12:26:29;3.77;;;1.20;;
14276;SDS011;7222;57.346;12.150;2023-07-20T12:28:57;2.87;;;1.10;;
14276;SDS011;7222;57.346;12.150;2023-07-20T12:31:24;4.03;;;1.53;;
14276;SDS011;7222;57.346;12.150;2023-07-20T12:33:54;3.63;;;1.10;;
14276;SDS011;7222;57.346;12.150;2023-07-20T12:36:21;2.87;;;1.40;;
14276;SDS011;7222;57.346;12.150;2023-07-20T12:38:48;3.37;;;1.53;;
14276;SDS011;7222;57.346;12.150;2023-07-20T12:41:15;4.57;;;1.20;;
14276;SDS011;7222;57.346;12.150;2023-07-20T12:43:43;4.80;;;1.63;;
14276;SDS011;7222;57.346;12.150;2023-07-20T12:46:12;4.23;;;1.33;;
14276;SDS011;7222;57.346;12.150;2023-07-20T12:48:39;4.33;;;1.60;;
14276;SDS011;7222;57.346;12.150;2023-07-20T12:51:08;4.70;;;1.73;;
14276;SDS011;7222;57.346;12.150;2023-07-20T12:53:37;3.07;;;1.60;;
14276;SDS011;7222;57.346;12.150;2023-07-20T12:56:04;3.43;;;1.30;;
14276;SDS011;7222;57.346;12.150;2023-07-20T12:58:32;5.33;;;2.13;;
14276;SDS011;7222;57.346;12.150;2023-07-20T13:00:59;2.63;;;1.20;;
14276;SDS011;7222;57.346;12.150;2023-07-20T13:03:26;3.73;;;1.53;;
14276;SDS011;7222;57.346;12.150;2023-07-20T13:05:52;4.07;;;1.60;;
14276;SDS011;7222;57.346;12.150;2023-07-20T13:08:21;3.97;;;1.30;;
14276;SDS011;7222;57.346;12.150;2023-07-20T13:10:50;3.50;;;1.70;;
14276;SDS011;7222;57.346;12.150;2023-07-20T13:13:17;2.37;;;1.50;;
14276;SDS011;7222;57.346;12.150;2023-07-20T13:15:45;3.93;;;1.40;;
14276;SDS011;7222;57.346;12.150;2023-07-20T13:18:13;2.93;;;1.30;;
14276;SDS011;7222;57.346;12.150;2023-07-20T13:20:40;2.17;;;1.47;;
14276;SDS011;7222;57.346;12.150;2023-07-20T13:23:07;3.87;;;1.33;;
14276;SDS011;7222;57.346;12.150;2023-07-20T13:25:35;5.23;;;2.03;;
14276;SDS011;7222;57.346;12.150;2023-07-20T13:28:04;4.77;;;1.40;;
14276;SDS011;7222;57.346;12.150;2023-07-20T13:30:32;3.83;;;1.47;;
14276;SDS011;7222;57.346;12.150;2023-07-20T13:32:58;4.70;;;1.47;;
14276;SDS011;7222;57.346;12.150;2023-07-20T13:35:25;4.83;;;1.60;;
14276;SDS011;7222;57.346;12.150;2023-07-20T13:37:53;4.93;;;1.60;;
14276;SDS011;7222;57.346;12.150;2023-07-20T13:40:20;5.47;;;1.40;;
14276;SDS011;7222;57.346;12.150;2023-07-20T13:42:50;4.93;;;1.60;;
14276;SDS011;7222;57.346;12.150;2023-07-20T13:45:17;5.30;;;1.47;;
14276;SDS011;7222;57.346;12.150;2023-07-20T13:47:43;4.13;;;1.60;;
14276;SDS011;7222;57.346;12.150;2023-07-20T13:50:10;3.70;;;1.53;;
14276;SDS011;7222;57.346;12.150;2023-07-20T13:52:37;4.23;;;1.80;;
14276;SDS011;7222;57.346;12.150;2023-07-20T13:55:04;2.33;;;1.50;;
14276;SDS011;7222;57.346;12.150;2023-07-20T13:57:31;4.97;;;1.33;;
14276;SDS011;7222;57.346;12.150;2023-07-20T14:00:00;2.20;;;1.20;;
14276;SDS011;7222;57.346;12.150;2023-07-20T14:02:29;4.10;;;1.77;;
14276;SDS011;7222;57.346;12.150;2023-07-20T14:04:55;3.30;;;1.10;;
14276;SDS011;7222;57.346;12.150;2023-07-20T14:07:22;4.03;;;1.60;;
14276;SDS011;7222;57.346;12.150;2023-07-20T14:09:50;4.57;;;1.40;;
14276;SDS011;7222;57.346;12.150;2023-07-20T14:12:17;3.80;;;1.67;;
14276;SDS011;7222;57.346;12.150;2023-07-20T14:14:43;4.10;;;1.30;;
14276;SDS011;7222;57.346;12.150;2023-07-20T14:17:12;6.13;;;1.77;;
14276;SDS011;7222;57.346;12.150;2023-07-20T14:19:39;7.27;;;1.80;;
14276;SDS011;7222;57.346;12.150;2023-07-20T14:22:06;3.80;;;1.50;;
14276;SDS011;7222;57.346;12.150;2023-07-20T14:24:33;4.97;;;1.60;;
14276;SDS011;7222;57.346;12.150;2023-07-20T14:27:00;4.27;;;1.30;;
14276;SDS011;7222;57.346;12.150;2023-07-20T14:29:27;3.10;;;1.57;;
14276;SDS011;7222;57.346;12.150;2023-07-20T14:31:56;4.03;;;1.43;;
14276;SDS011;7222;57.346;12.150;2023-07-20T14:34:25;5.00;;;1.80;;
14276;SDS011;7222;57.346;12.150;2023-07-20T14:36:53;4.07;;;1.40;;
14276;SDS011;7222;57.346;12.150;2023-07-20T14:39:20;4.50;;;1.60;;
14276;SDS011;7222;57.346;12.150;2023-07-20T14:41:48;3.93;;;1.50;;
14276;SDS011;7222;57.346;12.150;2023-07-20T14:44:16;3.87;;;1.53;;
14276;SDS011;7222;57.346;12.150;2023-07-20T14:46:43;3.73;;;1.40;;
14276;SDS011;7222;57.346;12.150;2023-07-20T14:49:10;4.00;;;1.53;;
14276;SDS011;7222;57.346;12.150;2023-07-20T14:51:39;2.03;;;1.50;;
14276;SDS011;7222;57.346;12.150;2023-07-20T14:54:08;6.57;;;1.60;;
14276;SDS011;7222;57.346;12.150;2023-07-20T14:56:37;6.53;;;1.80;;